createdAt,value
2022-09-25T00:04:35.413Z,15.90
2022-09-25T00:09:33.616Z,15.90
2022-09-25T00:14:31.879Z,15.90
2022-09-25T00:19:47.389Z,15.90
2022-09-25T00:24:47.045Z,15.90
2022-09-25T00:29:45.497Z,15.90
2022-09-25T00:34:43.642Z,15.90
2022-09-25T00:39:41.926Z,15.80
2022-09-25T00:44:56.647Z,15.80
2022-09-25T00:49:56.657Z,15.80
2022-09-25T00:54:59.821Z,15.80
2022-09-25T01:00:06.745Z,15.80
2022-09-25T01:05:09.070Z,15.80
2022-09-25T01:10:09.699Z,15.70
2022-09-25T01:15:11.651Z,15.70
2022-09-25T01:20:19.129Z,15.70
2022-09-25T01:25:30.012Z,15.70
2022-09-25T01:30:34.589Z,15.70
2022-09-25T01:35:48.367Z,15.70
2022-09-25T01:40:55.762Z,15.70
2022-09-25T01:46:01.345Z,15.70
2022-09-25T01:51:03.666Z,15.70
2022-09-25T01:56:07.114Z,15.60
2022-09-25T02:01:11.523Z,15.60
2022-09-25T02:06:12.334Z,15.60
2022-09-25T02:11:10.812Z,15.60
2022-09-25T02:16:13.338Z,15.60
2022-09-25T02:21:18.175Z,15.60
2022-09-25T02:26:23.758Z,15.60
2022-09-25T02:31:28.638Z,15.60
2022-09-25T02:36:26.982Z,15.60
2022-09-25T02:41:40.310Z,15.60
2022-09-25T02:46:45.331Z,15.60
2022-09-25T02:51:53.382Z,15.60
2022-09-25T02:57:01.402Z,15.60
2022-09-25T03:02:04.302Z,15.60
2022-09-25T03:07:03.393Z,15.60
2022-09-25T03:12:03.179Z,15.60
2022-09-25T03:17:06.146Z,15.60
2022-09-25T03:22:04.372Z,15.60
2022-09-25T03:27:02.503Z,15.60
2022-09-25T03:32:00.679Z,15.60
2022-09-25T03:37:00.178Z,15.60
2022-09-25T03:41:58.845Z,15.60
2022-09-25T03:46:57.075Z,15.60
2022-09-25T03:51:55.204Z,15.60
2022-09-25T03:56:54.754Z,15.60
2022-09-25T04:01:53.019Z,15.60
2022-09-25T04:06:51.242Z,15.60
2022-09-25T04:11:49.387Z,15.60
2022-09-25T04:16:49.043Z,15.60
2022-09-25T04:21:47.600Z,15.60
2022-09-25T04:26:46.158Z,15.60
2022-09-25T04:31:44.336Z,15.60
2022-09-25T04:36:46.720Z,15.50
2022-09-25T04:41:44.878Z,15.50
2022-09-25T04:46:43.144Z,15.50
2022-09-25T04:51:41.469Z,15.50
2022-09-25T04:56:40.962Z,15.50
2022-09-25T05:01:39.791Z,15.50
2022-09-25T05:06:38.081Z,15.50
2022-09-25T05:11:36.213Z,15.50
2022-09-25T05:16:35.778Z,15.40
2022-09-25T05:21:33.959Z,15.40
2022-09-25T05:26:34.450Z,15.40
2022-09-25T05:31:33.082Z,15.40
2022-09-25T05:36:34.257Z,15.50
2022-09-25T05:41:34.810Z,15.50
2022-09-25T05:46:33.072Z,15.50
2022-09-25T05:51:33.132Z,15.40
2022-09-25T05:56:31.305Z,15.50
2022-09-25T06:01:29.557Z,15.50
2022-09-25T06:06:27.824Z,15.50
2022-09-25T06:11:27.652Z,15.50
2022-09-25T06:16:26.081Z,15.50
2022-09-25T06:21:24.369Z,15.50
2022-09-25T06:26:23.232Z,15.60
2022-09-25T06:31:22.888Z,15.60
2022-09-25T06:36:21.121Z,15.60
2022-09-25T06:41:19.298Z,15.60
2022-09-25T06:46:18.321Z,15.60
2022-09-25T06:51:18.656Z,15.60
2022-09-25T06:56:16.886Z,15.60
2022-09-25T07:01:15.182Z,15.70
2022-09-25T07:06:16.464Z,15.70
2022-09-25T07:11:18.223Z,15.70
2022-09-25T07:16:18.177Z,15.70
2022-09-25T07:21:18.068Z,15.70
2022-09-25T07:26:22.366Z,15.80
2022-09-25T07:31:23.461Z,15.80
2022-09-25T07:36:22.384Z,15.80
2022-09-25T07:41:23.759Z,15.90
2022-09-25T07:46:22.054Z,15.90
2022-09-25T07:51:21.939Z,15.90
2022-09-25T07:56:21.841Z,16.00
2022-09-25T08:01:20.127Z,16.20
2022-09-25T08:06:18.321Z,16.10
2022-09-25T08:11:18.230Z,16.20
2022-09-25T08:16:22.664Z,16.20
2022-09-25T08:21:21.638Z,16.30
2022-09-25T08:26:21.908Z,16.30
2022-09-25T08:31:21.661Z,16.40
2022-09-25T08:36:20.365Z,16.50
2022-09-25T08:41:23.469Z,16.50
2022-09-25T08:46:44.674Z,16.60
2022-09-25T08:51:46.493Z,16.60
2022-09-25T08:56:44.756Z,16.70
2022-09-25T09:01:49.914Z,16.70
2022-09-25T09:07:08.052Z,16.80
2022-09-25T09:12:13.451Z,16.80
2022-09-25T09:17:19.206Z,16.90
2022-09-25T09:22:23.073Z,16.90
2022-09-25T09:27:33.041Z,17.00
2022-09-25T09:32:45.080Z,17.00
2022-09-25T09:37:59.751Z,17.00
2022-09-25T09:43:08.855Z,17.10
2022-09-25T09:48:19.180Z,17.10
2022-09-25T09:53:28.390Z,17.20
2022-09-25T09:58:30.995Z,17.20
2022-09-25T10:03:37.412Z,17.30
2022-09-25T10:08:36.312Z,17.30
2022-09-25T10:13:38.255Z,17.40
2022-09-25T10:18:43.009Z,17.50
2022-09-25T10:23:42.820Z,17.50
2022-09-25T10:28:44.001Z,17.50
2022-09-25T10:33:43.730Z,17.60
2022-09-25T10:38:49.970Z,17.60
2022-09-25T10:43:54.912Z,17.60
2022-09-25T10:49:36.076Z,17.60
2022-09-25T10:54:39.009Z,17.60
2022-09-25T10:59:41.231Z,17.60
2022-09-25T11:04:43.880Z,17.70
2022-09-25T11:09:46.108Z,17.70
2022-09-25T11:14:55.279Z,17.80
2022-09-25T11:20:16.214Z,17.80
2022-09-25T11:25:19.802Z,17.80
2022-09-25T11:30:20.064Z,17.70
2022-09-25T11:35:34.701Z,17.70
2022-09-25T11:40:59.010Z,17.60
2022-09-25T11:46:03.308Z,17.50
2022-09-25T11:51:12.945Z,17.40
2022-09-25T11:56:25.458Z,17.30
2022-09-25T12:01:33.583Z,17.30
2022-09-25T12:07:00.266Z,17.20
2022-09-25T12:12:07.410Z,17.20
2022-09-25T12:17:11.170Z,17.10
2022-09-25T12:22:19.915Z,17.10
2022-09-25T12:27:31.572Z,17.10
2022-09-25T12:32:54.671Z,17.10
2022-09-25T12:37:58.500Z,17.00
2022-09-25T12:43:02.946Z,17.00
2022-09-25T12:48:11.957Z,16.90
2022-09-25T12:53:24.158Z,16.90
2022-09-25T12:58:32.114Z,16.80
2022-09-25T13:03:40.072Z,16.80
2022-09-25T13:08:44.878Z,16.80
2022-09-25T13:13:46.413Z,16.70
2022-09-25T13:18:49.459Z,16.70
2022-09-25T13:23:51.758Z,16.60
2022-09-25T13:28:53.612Z,16.60
2022-09-25T13:33:55.263Z,16.60
2022-09-25T13:39:15.606Z,16.50
2022-09-25T13:45:07.910Z,16.60
2022-09-25T13:50:19.693Z,16.60
2022-09-25T13:55:20.187Z,16.60
2022-09-25T14:00:18.784Z,16.70
2022-09-25T14:05:21.601Z,16.80
2022-09-25T14:10:22.230Z,16.70
2022-09-25T14:15:26.851Z,16.70
2022-09-25T14:20:44.078Z,16.80
2022-09-25T14:25:47.490Z,16.80
2022-09-25T14:30:54.889Z,17.00
2022-09-25T14:36:02.660Z,17.00
2022-09-25T14:41:18.737Z,17.10
2022-09-25T14:46:20.040Z,17.10
2022-09-25T14:51:25.611Z,17.10
2022-09-25T14:56:26.950Z,17.00
2022-09-25T15:01:29.423Z,17.00
2022-09-25T15:06:29.425Z,17.00
2022-09-25T15:11:39.086Z,17.00
2022-09-25T15:16:56.594Z,17.00
2022-09-25T15:21:55.670Z,17.10
2022-09-25T15:27:03.437Z,17.20
2022-09-25T15:32:02.156Z,17.40
2022-09-25T15:37:18.086Z,17.30
2022-09-25T15:42:17.639Z,17.40
2022-09-25T15:47:52.182Z,17.40
2022-09-25T15:52:52.634Z,17.40
2022-09-25T15:57:54.217Z,17.40
2022-09-25T16:03:15.534Z,17.30
2022-09-25T16:08:29.264Z,17.30
2022-09-25T16:13:28.865Z,17.20
2022-09-25T16:18:40.586Z,17.20
2022-09-25T16:23:41.009Z,17.10
2022-09-25T16:28:40.898Z,17.10
2022-09-25T16:33:42.151Z,17.00
2022-09-25T16:38:41.349Z,17.00
2022-09-25T16:43:40.927Z,16.90
2022-09-25T16:48:40.678Z,16.80
2022-09-25T16:53:40.052Z,16.70
2022-09-25T16:58:38.181Z,16.60
2022-09-25T17:03:49.879Z,16.60
2022-09-25T17:08:49.026Z,16.50
2022-09-25T17:13:48.324Z,16.40
2022-09-25T17:18:47.856Z,16.40
2022-09-25T17:23:47.019Z,16.30
2022-09-25T17:28:45.193Z,16.20
2022-09-25T17:33:43.340Z,16.10
2022-09-25T17:38:42.920Z,16.10
2022-09-25T17:43:43.028Z,16.10
2022-09-25T17:48:41.292Z,16.00
2022-09-25T17:53:39.532Z,16.00
2022-09-25T17:58:39.657Z,15.90
2022-09-25T18:03:37.923Z,15.90
2022-09-25T18:08:36.429Z,15.80
2022-09-25T18:13:37.900Z,15.70
2022-09-25T18:18:54.860Z,15.70
2022-09-25T18:23:53.011Z,15.60
2022-09-25T18:28:51.145Z,15.60
2022-09-25T18:33:54.840Z,15.50
2022-09-25T18:38:53.156Z,15.50
2022-09-25T18:43:51.338Z,15.40
2022-09-25T18:48:53.492Z,15.30
2022-09-25T18:53:52.627Z,15.30
2022-09-25T18:58:51.766Z,15.30
2022-09-25T19:03:52.922Z,15.20
2022-09-25T19:08:53.731Z,15.20
2022-09-25T19:13:52.970Z,15.10
2022-09-25T19:18:52.605Z,15.10
2022-09-25T19:23:51.736Z,15.00
2022-09-25T19:28:50.226Z,15.00
2022-09-25T19:33:48.842Z,14.90
2022-09-25T19:38:48.749Z,14.90
2022-09-25T19:43:47.203Z,14.80
2022-09-25T19:48:46.128Z,14.70
2022-09-25T19:53:44.941Z,14.70
2022-09-25T19:58:44.753Z,14.60
2022-09-25T20:03:43.361Z,14.60
2022-09-25T20:08:41.547Z,14.50
2022-09-25T20:13:39.823Z,14.40
2022-09-25T20:18:39.424Z,14.40
2022-09-25T20:23:37.750Z,14.30
2022-09-25T20:28:36.611Z,14.50
2022-09-25T20:33:36.380Z,14.20
2022-09-25T20:38:36.861Z,14.10
2022-09-25T20:43:35.419Z,14.10
2022-09-25T20:48:36.220Z,14.10
2022-09-25T20:53:36.325Z,14.00
2022-09-25T20:58:34.745Z,13.90
2022-09-25T21:03:34.157Z,13.90
2022-09-25T21:08:33.059Z,13.80
2022-09-25T21:13:33.896Z,13.80
2022-09-25T21:18:35.098Z,13.70
2022-09-25T21:23:34.082Z,13.70
2022-09-25T21:28:34.278Z,13.70
2022-09-25T21:33:32.497Z,13.60
2022-09-25T21:38:30.787Z,13.60
2022-09-25T21:43:31.228Z,13.50
2022-09-25T21:48:31.299Z,13.50
2022-09-25T21:53:30.002Z,13.40
2022-09-25T21:58:28.508Z,13.40
2022-09-25T22:03:27.049Z,13.30
2022-09-25T22:08:26.572Z,13.30
2022-09-25T22:13:25.414Z,13.20
2022-09-25T22:18:23.795Z,13.20
2022-09-25T22:23:22.113Z,13.20
2022-09-25T22:28:22.545Z,13.10
2022-09-25T22:33:20.803Z,13.00
2022-09-25T22:38:18.982Z,13.00
2022-09-25T22:43:17.145Z,13.00
2022-09-25T22:48:16.782Z,13.00
2022-09-25T22:53:14.920Z,12.90
2022-09-25T22:58:13.093Z,12.90
2022-09-25T23:03:11.457Z,12.80
2022-09-25T23:08:11.070Z,12.80
2022-09-25T23:13:09.439Z,12.70
2022-09-25T23:18:07.935Z,12.70
2022-09-25T23:23:06.201Z,12.70
2022-09-25T23:28:05.745Z,12.60
2022-09-25T23:33:03.917Z,12.60
2022-09-25T23:38:02.560Z,12.60
2022-09-25T23:43:01.884Z,12.60
2022-09-25T23:48:01.505Z,12.50
2022-09-25T23:53:00.063Z,12.50
2022-09-25T23:57:58.419Z,12.50
